Time;durP1;ratioP1;P1;durP2;ratioP2;P2;SDS_P1;SDS_P2;PMS_P1;PMS_P2;Temp;Humidity;BMP_temperature;BMP_pressure;BME280_temperature;BME280_humidity;BME280_pressure;Samples;Min_cycle;Max_cycle;Signal;HPM_P1;HPM_P2
2020/03/30 00:01:45;;;;;;;23.7;18.1;;;;;;;2.59;85.61621;940.9474;;;;
2020/03/30 00:04:06;;;;;;;25.5;19;;;;;;;2.61;86.03613;940.9377;;;;
2020/03/30 00:06:31;;;;;;;26.5;19;;;;;;;2.75;85.7832;940.9319;;;;
2020/03/30 00:09:03;;;;;;;24.6;19.1;;;;;;;2.61;86.10352;940.9763;;;;
2020/03/30 00:11:29;;;;;;;25.2;19.8;;;;;;;2.4;87.13477;940.894;;;;
2020/03/30 00:13:54;;;;;;;28.2;21.1;;;;;;;2.21;88.49609;940.976;;;;
2020/03/30 00:16:19;;;;;;;28.5;21.7;;;;;;;2.21;88.86719;941.0248;;;;
2020/03/30 00:18:45;;;;;;;27.5;21.9;;;;;;;2.09;89.47656;941.0801;;;;
2020/03/30 00:21:10;;;;;;;29.1;22;;;;;;;2.2;89.20117;941.0075;;;;
2020/03/30 00:23:35;;;;;;;28;22;;;;;;;2.05;89.49121;941.0406;;;;
2020/03/30 00:26:22;;;;;;;31.2;22.9;;;;;;;1.99;90.25293;941.0133;;;;
2020/03/30 00:28:47;;;;;;;29.5;23.2;;;;;;;2.09;90.01465;941.0408;;;;
2020/03/30 00:31:13;;;;;;;31.3;22.8;;;;;;;2.14;89.56641;941.0338;;;;
2020/03/30 00:33:37;;;;;;;29.7;22.9;;;;;;;2.22;89.42676;941.0644;;;;
2020/03/30 00:36:03;;;;;;;29.1;22.2;;;;;;;2.18;89.46387;941.0733;;;;
2020/03/30 00:38:28;;;;;;;28.3;22.7;;;;;;;2.24;89.30762;941.055;;;;
2020/03/30 00:40:53;;;;;;;31.2;23.3;;;;;;;2.26;89.22168;941.0165;;;;
2020/03/30 00:43:18;;;;;;;30;22.8;;;;;;;2.27;89.03516;941.055;;;;
2020/03/30 00:45:44;;;;;;;31.5;23.4;;;;;;;2.26;88.86523;941.0969;;;;
2020/03/30 00:48:08;;;;;;;29;22.3;;;;;;;2.43;88.66602;941.0317;;;;
2020/03/30 00:50:34;;;;;;;31.2;22.6;;;;;;;2.42;88.20313;941.0634;;;;
2020/03/30 00:52:59;;;;;;;30.8;23.2;;;;;;;2.49;87.9375;941.1442;;;;
2020/03/30 00:55:24;;;;;;;30.2;22.4;;;;;;;2.56;87.66113;941.0815;;;;
2020/03/30 00:57:49;;;;;;;30;22.5;;;;;;;2.57;87.50684;941.0896;;;;
2020/03/30 01:00:14;;;;;;;28.3;22;;;;;;;2.53;87.37598;941.0274;;;;
2020/03/30 01:02:39;;;;;;;29.8;22.8;;;;;;;2.63;87.38477;941.0234;;;;
2020/03/30 01:05:04;;;;;;;28.9;22.1;;;;;;;2.57;87.40527;941.0119;;;;
2020/03/30 01:07:29;;;;;;;27.8;21.6;;;;;;;2.72;87.10059;941.01;;;;
2020/03/30 01:09:54;;;;;;;25.4;21.5;;;;;;;2.74;87.02637;941.0327;;;;
2020/03/30 01:12:19;;;;;;;26.4;21.1;;;;;;;2.67;86.78516;941.0375;;;;
2020/03/30 01:14:44;;;;;;;26.6;21.8;;;;;;;2.81;86.62598;941.0117;;;;
2020/03/30 01:17:10;;;;;;;26.3;21.4;;;;;;;2.59;87.12891;941.0173;;;;
2020/03/30 01:19:35;;;;;;;27;22;;;;;;;2.68;87.11621;941.0201;;;;
2020/03/30 01:22:00;;;;;;;27.9;22.1;;;;;;;2.72;86.94238;941.079;;;;
2020/03/30 01:24:25;;;;;;;25.3;21.5;;;;;;;2.79;86.44141;941.0591;;;;
2020/03/30 01:26:50;;;;;;;24.7;20.9;;;;;;;2.79;86.3291;941.0587;;;;
2020/03/30 01:29:15;;;;;;;23.4;20.4;;;;;;;2.7;86.78125;941.064;;;;
2020/03/30 01:31:40;;;;;;;26.9;21.2;;;;;;;2.83;86.52832;941.0148;;;;
2020/03/30 01:34:05;;;;;;;24.9;20.5;;;;;;;2.89;86.11523;941.0098;;;;
2020/03/30 01:36:30;;;;;;;25.7;20.5;;;;;;;2.89;85.99219;940.9483;;;;
2020/03/30 01:38:56;;;;;;;24.1;20.5;;;;;;;2.89;85.85742;940.9916;;;;
2020/03/30 01:41:20;;;;;;;24.1;20.6;;;;;;;2.85;86.03906;940.9994;;;;
2020/03/30 01:43:45;;;;;;;23.5;19.8;;;;;;;2.9;85.94922;940.9331;;;;
2020/03/30 01:46:11;;;;;;;24.4;20.4;;;;;;;2.86;86.0293;940.9595;;;;
2020/03/30 01:48:36;;;;;;;22;19.4;;;;;;;2.87;86.00879;940.9025;;;;
2020/03/30 01:51:01;;;;;;;22.2;19.1;;;;;;;2.84;85.86914;940.9086;;;;
2020/03/30 01:53:26;;;;;;;20.7;18.5;;;;;;;2.84;86.03711;940.9099;;;;
2020/03/30 01:55:51;;;;;;;23.1;19.7;;;;;;;2.77;86.24707;940.877;;;;
2020/03/30 01:58:16;;;;;;;22.7;18.9;;;;;;;2.84;86.25;940.8644;;;;
2020/03/30 02:00:42;;;;;;;22.3;18.8;;;;;;;2.89;85.84668;940.9334;;;;
2020/03/30 02:03:07;;;;;;;21;18.3;;;;;;;2.92;85.7168;940.9039;;;;
2020/03/30 02:05:32;;;;;;;20.7;18.5;;;;;;;2.91;85.74902;940.8186;;;;
2020/03/30 02:07:57;;;;;;;20.1;18;;;;;;;2.94;85.62012;940.9009;;;;
2020/03/30 02:10:22;;;;;;;19.5;17.4;;;;;;;2.91;85.69238;940.8271;;;;
2020/03/30 02:12:47;;;;;;;20.3;18.1;;;;;;;2.85;85.88379;940.931;;;;
2020/03/30 02:15:12;;;;;;;20.5;18.3;;;;;;;2.74;86.15137;940.9473;;;;
2020/03/30 02:17:37;;;;;;;21;18.7;;;;;;;2.83;86.34766;940.9542;;;;
2020/03/30 02:20:02;;;;;;;19.4;17.4;;;;;;;2.85;86.01855;940.8948;;;;
2020/03/30 02:22:28;;;;;;;18.3;16.4;;;;;;;2.83;85.80957;940.8819;;;;
2020/03/30 02:24:54;;;;;;;18.9;16.9;;;;;;;2.89;85.73438;940.886;;;;
2020/03/30 02:27:21;;;;;;;18;16.2;;;;;;;2.88;85.87793;940.9182;;;;
2020/03/30 02:29:43;;;;;;;17.3;15.6;;;;;;;2.85;85.93848;940.9246;;;;
2020/03/30 02:32:08;;;;;;;17.5;15.7;;;;;;;2.67;86.79688;940.9431;;;;
2020/03/30 02:34:33;;;;;;;14.3;12.9;;;;;;;2.63;86.91211;940.932;;;;
2020/03/30 02:36:58;;;;;;;11.3;10.1;;;;;;;2.29;87.02539;940.8903;;;;
2020/03/30 02:39:23;;;;;;;8.8;7.9;;;;;;;2.26;86.9502;940.8041;;;;
2020/03/30 02:41:48;;;;;;;7;6.4;;;;;;;2;87.25488;940.9352;;;;
2020/03/30 02:44:13;;;;;;;7.4;6.7;;;;;;;1.89;87.85938;940.8934;;;;
2020/03/30 02:46:38;;;;;;;6.7;6.1;;;;;;;1.72;88.21484;940.8452;;;;
2020/03/30 02:49:04;;;;;;;6.8;6.2;;;;;;;1.66;88.20215;940.9553;;;;
2020/03/30 02:51:29;;;;;;;6.8;6.2;;;;;;;1.62;88.40723;940.8455;;;;
2020/03/30 02:53:53;;;;;;;7.2;6.5;;;;;;;1.5;88.39355;940.8742;;;;
2020/03/30 02:56:19;;;;;;;7.5;6.8;;;;;;;1.39;88.55859;940.9147;;;;
2020/03/30 02:58:44;;;;;;;8.4;7.6;;;;;;;1.23;88.67188;940.9244;;;;
2020/03/30 03:01:09;;;;;;;8.5;7.7;;;;;;;1.29;88.69434;940.9576;;;;
2020/03/30 03:03:34;;;;;;;8.8;8;;;;;;;1.41;88.49805;940.916;;;;
2020/03/30 03:05:59;;;;;;;9;8.2;;;;;;;1.29;88.7168;940.9231;;;;
2020/03/30 03:08:24;;;;;;;8.7;7.9;;;;;;;1.34;87.90137;940.9361;;;;
2020/03/30 03:10:49;;;;;;;8.9;8.1;;;;;;;1.24;87.49902;940.9185;;;;
2020/03/30 03:13:14;;;;;;;9.5;8.6;;;;;;;1.29;87.62402;940.9855;;;;
2020/03/30 03:15:39;;;;;;;9.3;8.5;;;;;;;1.28;87.7002;940.9417;;;;
2020/03/30 03:18:04;;;;;;;9.5;8.7;;;;;;;1.32;87.67188;940.8972;;;;
2020/03/30 03:20:30;;;;;;;9.2;8.4;;;;;;;1.18;87.49902;940.9606;;;;
2020/03/30 03:22:55;;;;;;;8.9;8.1;;;;;;;1.16;86.98145;941.0154;;;;
2020/03/30 03:25:20;;;;;;;9.2;8.4;;;;;;;1.29;87.1748;940.9783;;;;
2020/03/30 03:27:45;;;;;;;9.3;8.5;;;;;;;1.34;86.89551;940.8596;;;;
2020/03/30 03:30:10;;;;;;;9;8.2;;;;;;;1.32;86.42285;940.9625;;;;
2020/03/30 03:32:38;;;;;;;9.1;8.3;;;;;;;1.41;86.88672;940.988;;;;
2020/03/30 03:35:00;;;;;;;9;8.2;;;;;;;1.42;86.45215;940.9775;;;;
2020/03/30 03:37:26;;;;;;;9.1;8.3;;;;;;;1.42;85.98438;940.9839;;;;
2020/03/30 03:39:51;;;;;;;9.2;8.4;;;;;;;1.3;86.39453;941.0485;;;;
2020/03/30 03:42:17;;;;;;;9.3;8.4;;;;;;;1.35;86.12598;940.9874;;;;
2020/03/30 03:44:41;;;;;;;10;9.1;;;;;;;1.33;86.22363;940.9824;;;;
2020/03/30 03:47:06;;;;;;;10;9;;;;;;;1.22;86.14551;940.9867;;;;
2020/03/30 03:49:31;;;;;;;10;9.1;;;;;;;1.17;86.4043;940.9534;;;;
2020/03/30 03:51:56;;;;;;;10.4;9.5;;;;;;;1.07;87.1748;940.9319;;;;
2020/03/30 03:54:21;;;;;;;10.9;9.9;;;;;;;1.06;86.88281;940.9478;;;;
2020/03/30 03:56:46;;;;;;;11.6;10.6;;;;;;;1.08;87.17676;940.8597;;;;
2020/03/30 03:59:12;;;;;;;11.3;10.2;;;;;;;1.08;86.94238;940.8898;;;;
2020/03/30 04:02:30;;;;;;;11.4;10.4;;;;;;;1.17;86.86035;940.9965;;;;
2020/03/30 04:04:55;;;;;;;11.3;10.3;;;;;;;1.12;86.78418;941.0725;;;;
2020/03/30 04:07:21;;;;;;;11.8;10.8;;;;;;;1.15;87.03516;940.9867;;;;
2020/03/30 04:09:46;;;;;;;12;10.9;;;;;;;1.01;86.90527;941.0145;;;;
2020/03/30 04:12:11;;;;;;;12;10.9;;;;;;;1.07;86.83984;941.0292;;;;
2020/03/30 04:14:36;;;;;;;12;10.9;;;;;;;1.02;86.68555;941.062;;;;
2020/03/30 04:17:01;;;;;;;11.9;10.8;;;;;;;1.16;86.32227;940.9772;;;;
2020/03/30 04:19:29;;;;;;;12.5;11.3;;;;;;;1.13;86.29492;941.0078;;;;
2020/03/30 04:21:51;;;;;;;12.1;11;;;;;;;0.99;86.53125;940.9847;;;;
2020/03/30 04:24:16;;;;;;;12.5;11.4;;;;;;;0.95;86.55957;940.9931;;;;
2020/03/30 04:26:41;;;;;;;13;11.8;;;;;;;0.96;86.57227;940.9568;;;;
2020/03/30 04:29:06;;;;;;;13.7;12.5;;;;;;;0.85;86.80664;940.9742;;;;
2020/03/30 04:31:32;;;;;;;13.2;12;;;;;;;0.82;86.76758;940.9836;;;;
2020/03/30 04:33:57;;;;;;;14;12.7;;;;;;;0.85;87.54297;941.0369;;;;
2020/03/30 04:36:22;;;;;;;14.4;13.1;;;;;;;0.8;87.57715;941.0197;;;;
2020/03/30 04:38:47;;;;;;;13.7;12.5;;;;;;;0.77;87.42578;941.024;;;;
2020/03/30 04:41:12;;;;;;;14.7;13.4;;;;;;;0.62;88.15332;941.0969;;;;
2020/03/30 04:43:37;;;;;;;14.5;13.2;;;;;;;0.77;87.83887;941.0858;;;;
2020/03/30 04:46:02;;;;;;;13.8;12.5;;;;;;;0.6;87.55762;941.1504;;;;
2020/03/30 04:48:27;;;;;;;13.3;12.1;;;;;;;0.56;87.9502;941.1876;;;;
2020/03/30 04:50:53;;;;;;;13.4;12.2;;;;;;;0.75;87.43359;941.0933;;;;
2020/03/30 04:53:18;;;;;;;13;11.8;;;;;;;0.85;87.13086;941.1774;;;;
2020/03/30 04:55:43;;;;;;;14;12.7;;;;;;;1.07;86.90723;941.1242;;;;
2020/03/30 04:58:08;;;;;;;13.3;12.1;;;;;;;1.03;86.60938;941.158;;;;
2020/03/30 05:00:33;;;;;;;13.2;11.9;;;;;;;1.05;86.35645;941.2007;;;;
2020/03/30 05:02:58;;;;;;;12.5;11.4;;;;;;;0.99;86.36523;941.0179;;;;
2020/03/30 05:05:23;;;;;;;12.5;11.3;;;;;;;0.78;86.44629;941.1644;;;;
2020/03/30 05:07:48;;;;;;;13;11.8;;;;;;;0.75;86.86426;941.1368;;;;
2020/03/30 05:10:13;;;;;;;12.5;11.4;;;;;;;0.63;87.08398;941.1886;;;;
2020/03/30 05:12:39;;;;;;;12.7;11.5;;;;;;;0.69;87.2666;941.1541;;;;
2020/03/30 05:15:04;;;;;;;12.6;11.4;;;;;;;0.65;86.61914;941.2154;;;;
2020/03/30 05:17:29;;;;;;;12.8;11.6;;;;;;;0.69;86.8291;941.2159;;;;
2020/03/30 05:19:54;;;;;;;12.3;11.2;;;;;;;0.74;85.66699;941.2692;;;;
2020/03/30 05:22:19;;;;;;;12.8;11.6;;;;;;;0.7;85.21289;941.1609;;;;
2020/03/30 05:24:57;;;;;;;13.1;11.9;;;;;;;0.72;85.53125;941.241;;;;
2020/03/30 05:27:09;;;;;;;12.8;11.6;;;;;;;0.76;85.53809;941.2266;;;;
2020/03/30 05:29:34;;;;;;;13;11.7;;;;;;;0.63;84.93066;941.2764;;;;
2020/03/30 05:31:59;;;;;;;13;11.8;;;;;;;0.6;85.27148;941.3041;;;;
2020/03/30 05:34:24;;;;;;;11.9;10.8;;;;;;;0.87;85.02637;941.296;;;;
2020/03/30 05:36:49;;;;;;;12.1;11;;;;;;;0.95;84.70605;941.3085;;;;
2020/03/30 05:39:14;;;;;;;14.3;12.9;;;;;;;0.71;85.27246;941.3134;;;;
2020/03/30 05:41:39;;;;;;;15.4;13.9;;;;;;;0.7;86.27344;941.3066;;;;
2020/03/30 05:44:04;;;;;;;16.8;15.2;;;;;;;0.54;86.56348;941.2383;;;;
2020/03/30 05:46:30;;;;;;;17.4;15.7;;;;;;;0.45;87.12695;941.1839;;;;
2020/03/30 05:48:55;;;;;;;18.2;16.4;;;;;;;0.64;86.99609;941.2469;;;;
2020/03/30 05:51:20;;;;;;;16.9;15.3;;;;;;;0.69;86.87402;941.3622;;;;
2020/03/30 05:53:45;;;;;;;16.3;14.7;;;;;;;0.85;85.93457;941.3784;;;;
2020/03/30 05:56:10;;;;;;;18.5;15.8;;;;;;;0.84;85.84277;941.3569;;;;
2020/03/30 05:58:35;;;;;;;18.4;16.6;;;;;;;0.59;85.71582;941.4088;;;;
2020/03/30 06:01:00;;;;;;;18.7;16.8;;;;;;;0.43;86.3623;941.4687;;;;
2020/03/30 06:03:25;;;;;;;19.6;17.6;;;;;;;0.51;86.43555;941.4266;;;;
2020/03/30 06:05:50;;;;;;;18.7;16.9;;;;;;;0.51;86.17871;941.407;;;;
2020/03/30 06:08:15;;;;;;;19.5;17.5;;;;;;;0.7;86.38477;941.3223;;;;
2020/03/30 06:10:40;;;;;;;20.2;18.2;;;;;;;0.7;86.25098;941.4274;;;;
2020/03/30 06:13:06;;;;;;;18.3;16.5;;;;;;;0.67;85.24121;941.3472;;;;
2020/03/30 06:16:17;;;;;;;18.7;16.8;;;;;;;0.77;85.19434;941.4191;;;;
2020/03/30 06:17:56;;;;;;;18.5;16.6;;;;;;;0.81;85.37988;941.4133;;;;
2020/03/30 06:20:21;;;;;;;17.5;15.7;;;;;;;0.83;84.53516;941.4025;;;;
2020/03/30 06:22:46;;;;;;;16.8;15.1;;;;;;;0.95;84.4375;941.4556;;;;
2020/03/30 06:25:11;;;;;;;16.9;15.3;;;;;;;1.06;84.1582;941.4966;;;;
2020/03/30 06:27:36;;;;;;;17.9;16.1;;;;;;;1;84.31445;941.4813;;;;
2020/03/30 06:30:01;;;;;;;18.2;16.4;;;;;;;1.16;83.86523;941.4851;;;;
2020/03/30 06:32:27;;;;;;;17.9;16.2;;;;;;;1.27;83.21582;941.5586;;;;
2020/03/30 06:34:52;;;;;;;17.5;15.8;;;;;;;1.13;83.57813;941.493;;;;
2020/03/30 06:37:17;;;;;;;17.8;16.1;;;;;;;1.25;83.80273;941.5156;;;;
2020/03/30 06:39:42;;;;;;;15.8;14.3;;;;;;;1.24;83.21973;941.5936;;;;
2020/03/30 06:42:07;;;;;;;15;13.6;;;;;;;1.31;83.25879;941.5698;;;;
2020/03/30 06:44:33;;;;;;;14.5;13.2;;;;;;;1.35;82.7959;941.6135;;;;
2020/03/30 06:46:57;;;;;;;12.2;11.1;;;;;;;1.28;82.05762;941.6664;;;;
2020/03/30 06:49:23;;;;;;;11.2;10.2;;;;;;;1.33;82.14453;941.6303;;;;
2020/03/30 06:51:48;;;;;;;10.8;9.8;;;;;;;1.26;81.7168;941.6896;;;;
2020/03/30 06:54:13;;;;;;;10.9;9.8;;;;;;;1.01;81.38965;941.7249;;;;
2020/03/30 06:56:38;;;;;;;12.2;11.1;;;;;;;0.94;82.48047;941.7122;;;;
2020/03/30 06:59:03;;;;;;;12.1;10.9;;;;;;;1.03;81.97461;941.7115;;;;
2020/03/30 07:01:28;;;;;;;12;10.9;;;;;;;1.11;81.86621;941.7313;;;;
2020/03/30 07:03:53;;;;;;;11.2;10.2;;;;;;;0.87;81.70703;941.8058;;;;
2020/03/30 07:06:19;;;;;;;11.9;10.7;;;;;;;0.97;81.92969;941.7885;;;;
2020/03/30 07:08:45;;;;;;;12.2;11;;;;;;;0.9;81.63672;941.7879;;;;
2020/03/30 07:11:11;;;;;;;12.5;11.3;;;;;;;0.94;82.10059;941.7881;;;;
2020/03/30 07:13:36;;;;;;;11.7;10.6;;;;;;;1.01;81.53418;941.8181;;;;
2020/03/30 07:16:01;;;;;;;11.7;10.6;;;;;;;0.85;82.22852;941.8582;;;;
2020/03/30 07:18:28;;;;;;;12.1;11;;;;;;;0.75;82.16602;941.8296;;;;
2020/03/30 07:20:52;;;;;;;11.4;10.3;;;;;;;1.02;82.09473;941.86;;;;
2020/03/30 07:23:17;;;;;;;10.9;9.9;;;;;;;0.94;81.64355;941.8258;;;;
2020/03/30 07:25:42;;;;;;;11;10;;;;;;;1.03;80.55664;941.8466;;;;
2020/03/30 07:28:07;;;;;;;11.5;10.4;;;;;;;0.84;80.59863;941.9419;;;;
2020/03/30 07:30:32;;;;;;;11.2;10.1;;;;;;;0.99;80.29102;942.0214;;;;
2020/03/30 07:32:58;;;;;;;11.7;10.6;;;;;;;0.72;81.34668;941.9901;;;;
2020/03/30 07:35:23;;;;;;;12.7;11.4;;;;;;;0.93;81.35156;941.9939;;;;
2020/03/30 07:37:48;;;;;;;12.2;11;;;;;;;0.98;81.06055;942.0178;;;;
2020/03/30 07:40:13;;;;;;;12.2;11;;;;;;;1.17;80.66309;942.0137;;;;
2020/03/30 07:42:38;;;;;;;11.2;10.1;;;;;;;1.06;80.95313;942.0087;;;;
2020/03/30 07:45:03;;;;;;;12.4;11.2;;;;;;;1.09;80.63379;942.0589;;;;
2020/03/30 07:47:28;;;;;;;12.8;11.5;;;;;;;1.05;80.41504;942.0277;;;;
2020/03/30 07:49:53;;;;;;;12.7;11.5;;;;;;;1.04;81.08203;942.0862;;;;
2020/03/30 07:52:19;;;;;;;12.1;10.9;;;;;;;1.24;80.27051;942.0955;;;;
2020/03/30 07:54:44;;;;;;;11.4;10.3;;;;;;;1.13;80.16211;942.1127;;;;
2020/03/30 07:57:09;;;;;;;12.3;11.1;;;;;;;1.22;80.96191;942.1239;;;;
2020/03/30 07:59:34;;;;;;;12.1;10.9;;;;;;;1.26;80.26465;942.1793;;;;
2020/03/30 08:01:59;;;;;;;12.4;11.1;;;;;;;1.18;79.9043;942.1868;;;;
2020/03/30 08:04:24;;;;;;;12;10.8;;;;;;;1.19;80.15039;942.1848;;;;
2020/03/30 08:06:49;;;;;;;12.3;11.1;;;;;;;1.23;80.43652;942.2299;;;;
2020/03/30 08:09:15;;;;;;;12;10.8;;;;;;;1.35;79.60156;942.1102;;;;
2020/03/30 08:11:39;;;;;;;12.4;11.2;;;;;;;1.48;79.5791;942.2695;;;;
2020/03/30 08:14:05;;;;;;;11.6;10.5;;;;;;;1.57;78.43359;942.2427;;;;
2020/03/30 08:16:30;;;;;;;11.6;10.4;;;;;;;1.45;78.70215;942.2603;;;;
2020/03/30 08:18:56;;;;;;;10.2;9.2;;;;;;;1.28;77.90137;942.0106;;;;
2020/03/30 08:21:20;;;;;;;11.5;10.4;;;;;;;1.32;78.99121;942.1736;;;;
2020/03/30 08:23:45;;;;;;;11.4;10.3;;;;;;;1.4;78.46875;942.2094;;;;
2020/03/30 08:26:11;;;;;;;12.6;11.4;;;;;;;1.46;78.48047;942.1782;;;;
2020/03/30 08:28:36;;;;;;;12.2;10.9;;;;;;;1.34;79.12891;942.2371;;;;
2020/03/30 08:31:01;;;;;;;13;11.7;;;;;;;1.41;78.66016;942.1584;;;;
2020/03/30 08:33:26;;;;;;;11.3;10.2;;;;;;;1.32;77.70508;942.204;;;;
2020/03/30 08:35:51;;;;;;;13.1;11.7;;;;;;;1.3;79.04395;942.2447;;;;
2020/03/30 08:38:16;;;;;;;12.1;11;;;;;;;1.41;79.03125;942.223;;;;
2020/03/30 08:40:42;;;;;;;13;11.6;;;;;;;1.25;79.19043;942.1873;;;;
2020/03/30 08:43:06;;;;;;;12.7;11.4;;;;;;;1.52;78.61328;942.1766;;;;
2020/03/30 08:45:32;;;;;;;15.2;13.7;;;;;;;1.38;79.20313;942.2338;;;;
2020/03/30 08:47:57;;;;;;;17.9;15.3;;;;;;;1.63;78.83496;942.2693;;;;
2020/03/30 08:50:22;;;;;;;15.8;13.4;;;;;;;1.79;78.22949;942.2978;;;;
2020/03/30 08:52:47;;;;;;;19.3;15.5;;;;;;;1.97;77.84863;942.1898;;;;
2020/03/30 08:55:12;;;;;;;19.9;17.1;;;;;;;1.66;77.44531;942.2484;;;;
2020/03/30 08:57:37;;;;;;;18.2;16.3;;;;;;;1.72;78.36133;942.2477;;;;
2020/03/30 09:00:02;;;;;;;16.7;14.5;;;;;;;1.95;77.51855;942.2012;;;;
2020/03/30 09:02:27;;;;;;;15.1;13.3;;;;;;;2.05;77.78516;942.1356;;;;
2020/03/30 09:04:52;;;;;;;12.2;11;;;;;;;2.26;77.16016;942.1227;;;;
2020/03/30 09:07:18;;;;;;;10;9;;;;;;;2.35;75.13965;942.1442;;;;
2020/03/30 09:09:43;;;;;;;10;9;;;;;;;2.4;74.79102;942.2308;;;;
2020/03/30 09:12:08;;;;;;;9.4;8.5;;;;;;;2.23;75.10645;942.197;;;;
2020/03/30 09:14:33;;;;;;;10;9;;;;;;;2.58;74.88867;942.1188;;;;
2020/03/30 09:16:58;;;;;;;8.3;7.5;;;;;;;2.58;73.99316;942.2008;;;;
2020/03/30 09:19:23;;;;;;;9.3;8.3;;;;;;;2.87;74.40137;942.2283;;;;
2020/03/30 09:21:48;;;;;;;9.2;8.3;;;;;;;2.72;73.48828;942.1435;;;;
2020/03/30 09:24:13;;;;;;;9.8;8.8;;;;;;;2.13;75.97363;942.1613;;;;
2020/03/30 09:26:38;;;;;;;47.9;19.7;;;;;;;2.65;75.1123;942.1465;;;;
2020/03/30 09:29:03;;;;;;;24.7;13;;;;;;;2.71;74.65332;942.1556;;;;
2020/03/30 09:31:29;;;;;;;28.8;13;;;;;;;2.87;73.72949;942.058;;;;
2020/03/30 09:33:54;;;;;;;18.3;10.7;;;;;;;2.72;72.84961;942.168;;;;
2020/03/30 09:36:20;;;;;;;19.1;10.9;;;;;;;2.61;74.30078;941.9981;;;;
2020/03/30 09:38:45;;;;;;;16;11.1;;;;;;;2.46;74.24023;942.1223;;;;
2020/03/30 09:41:10;;;;;;;11.9;9.7;;;;;;;2.36;74.69336;942.1582;;;;
2020/03/30 09:43:36;;;;;;;9.6;8.7;;;;;;;2.5;73.70996;942.0572;;;;
2020/03/30 09:46:00;;;;;;;9.6;8.7;;;;;;;2.5;74.02246;942.0516;;;;
2020/03/30 09:48:26;;;;;;;9.9;9;;;;;;;2.16;74.91602;942.1289;;;;
2020/03/30 09:50:51;;;;;;;10.4;9.4;;;;;;;2.1;75.47559;942.0925;;;;
2020/03/30 09:53:21;;;;;;;10.4;9.4;;;;;;;2;75.76074;942.154;;;;
2020/03/30 09:55:41;;;;;;;10.6;9.6;;;;;;;2.15;75.68652;942.1072;;;;
2020/03/30 09:58:06;;;;;;;9.8;8.9;;;;;;;2.5;74.68555;942.0792;;;;
2020/03/30 10:00:32;;;;;;;8.7;7.9;;;;;;;2.62;73.34961;942.0087;;;;
2020/03/30 10:02:59;;;;;;;9.2;8.3;;;;;;;2.59;73.30957;942.0092;;;;
2020/03/30 10:05:24;;;;;;;10;9.1;;;;;;;2.2;74.62207;942.0005;;;;
2020/03/30 10:07:50;;;;;;;9.4;8.5;;;;;;;2.33;74.10645;942.0687;;;;
2020/03/30 10:10:15;;;;;;;10.4;9.4;;;;;;;2.25;75.32422;942.0889;;;;
2020/03/30 10:12:40;;;;;;;9.7;8.8;;;;;;;2.33;74.7334;941.9981;;;;
2020/03/30 10:15:05;;;;;;;11.2;10.1;;;;;;;2.04;74.74805;941.9951;;;;
2020/03/30 10:17:30;;;;;;;11.3;10.1;;;;;;;2.23;75.13086;941.9889;;;;
2020/03/30 10:19:55;;;;;;;11;9.9;;;;;;;2.28;75.13867;941.9526;;;;
2020/03/30 10:22:20;;;;;;;10.4;9.3;;;;;;;1.89;75.93164;941.915;;;;
2020/03/30 10:24:45;;;;;;;10.4;9.4;;;;;;;1.92;77.25684;942.0744;;;;
2020/03/30 10:27:10;;;;;;;10.1;9.1;;;;;;;2.26;75.40234;942.0121;;;;
2020/03/30 10:29:35;;;;;;;9.8;8.8;;;;;;;2.12;75.72656;942.0447;;;;
2020/03/30 10:32:01;;;;;;;10;9;;;;;;;2.29;76.14844;941.9978;;;;
2020/03/30 10:34:25;;;;;;;9.6;8.7;;;;;;;2.5;75.6377;941.9575;;;;
2020/03/30 10:36:51;;;;;;;8.6;7.7;;;;;;;2.33;75.05664;941.9601;;;;
2020/03/30 10:39:17;;;;;;;9.7;8.8;;;;;;;2.23;76.41797;941.9308;;;;
2020/03/30 10:41:41;;;;;;;9.8;8.8;;;;;;;2.04;76.93262;941.9412;;;;
2020/03/30 10:44:06;;;;;;;9.3;8.4;;;;;;;2.24;76.22949;942.0145;;;;
2020/03/30 10:46:31;;;;;;;9.4;8.4;;;;;;;2.23;76.66309;941.9752;;;;
2020/03/30 10:48:56;;;;;;;9.1;8.2;;;;;;;2.21;76.39063;941.9761;;;;
2020/03/30 10:51:21;;;;;;;8.8;8;;;;;;;2.36;76.03809;941.8439;;;;
2020/03/30 10:54:00;;;;;;;8.7;7.8;;;;;;;2.59;74.74414;941.9102;;;;
2020/03/30 10:56:13;;;;;;;9.2;8.3;;;;;;;2.88;74.15723;941.9034;;;;
2020/03/30 10:58:38;;;;;;;8;7.2;;;;;;;3.07;72.30371;941.8514;;;;
2020/03/30 11:01:04;;;;;;;8;7.2;;;;;;;2.91;73.4668;941.8746;;;;
2020/03/30 11:03:29;;;;;;;7.3;6.6;;;;;;;2.93;71.99902;941.947;;;;
2020/03/30 11:05:54;;;;;;;8.7;7.9;;;;;;;2.69;74.67188;941.8631;;;;
2020/03/30 11:08:22;;;;;;;8.9;7.6;;;;;;;2.72;74.41895;941.8834;;;;
2020/03/30 11:10:44;;;;;;;7.4;6.7;;;;;;;2.84;73.82422;941.9281;;;;
2020/03/30 11:13:10;;;;;;;8.3;7.5;;;;;;;2.75;74.88477;941.8901;;;;
2020/03/30 11:15:35;;;;;;;8.4;7.6;;;;;;;2.89;74.49609;941.8441;;;;
2020/03/30 11:18:00;;;;;;;8.3;7.6;;;;;;;2.74;75.71289;941.8491;;;;
2020/03/30 11:20:25;;;;;;;8.5;7.7;;;;;;;2.71;75.0918;941.8391;;;;
2020/03/30 11:22:51;;;;;;;7.5;6.8;;;;;;;2.94;74.53711;941.8054;;;;
2020/03/30 11:25:16;;;;;;;7.6;6.9;;;;;;;3.04;74.17285;941.798;;;;
2020/03/30 11:27:41;;;;;;;7.5;6.8;;;;;;;2.77;74.26074;941.7778;;;;
2020/03/30 11:30:06;;;;;;;8.6;7.8;;;;;;;2.82;75.13379;941.8521;;;;
2020/03/30 11:32:31;;;;;;;8.2;7.4;;;;;;;3.02;75.3252;941.7558;;;;
2020/03/30 11:34:56;;;;;;;7.4;6.7;;;;;;;3.42;73.61035;941.7917;;;;
2020/03/30 11:37:21;;;;;;;7.6;6.9;;;;;;;3.49;72.12891;941.7531;;;;
2020/03/30 11:39:46;;;;;;;7.6;6.9;;;;;;;3.65;72.06738;941.7042;;;;
2020/03/30 11:42:11;;;;;;;7.9;7.2;;;;;;;3.53;72.38281;941.7446;;;;
2020/03/30 11:44:36;;;;;;;7.9;7.1;;;;;;;3.35;72.79004;941.7106;;;;
2020/03/30 11:47:01;;;;;;;7.7;6.9;;;;;;;3.77;72.31348;941.7477;;;;
2020/03/30 11:49:27;;;;;;;7.1;6.4;;;;;;;4.32;70.10938;941.6564;;;;
2020/03/30 11:51:52;;;;;;;7.4;6.6;;;;;;;4.64;68.61816;941.5806;;;;
2020/03/30 11:54:17;;;;;;;6.7;6;;;;;;;5.15;67.66504;941.5878;;;;
2020/03/30 11:56:42;;;;;;;6.7;6.1;;;;;;;5.63;66.49902;941.5678;;;;
2020/03/30 11:59:07;;;;;;;6.9;6.1;;;;;;;5.65;64.93359;941.5575;;;;
2020/03/30 12:01:33;;;;;;;6.8;6.1;;;;;;;5.86;64.00488;941.5282;;;;
2020/03/30 12:03:57;;;;;;;6.9;6.3;;;;;;;5.8;65.29297;941.563;;;;
2020/03/30 12:06:22;;;;;;;6.5;5.9;;;;;;;5.79;64.34375;941.6259;;;;
2020/03/30 12:08:47;;;;;;;6.7;6;;;;;;;5.78;63.08887;941.5704;;;;
2020/03/30 12:11:13;;;;;;;6.4;5.8;;;;;;;5.65;64.66211;941.5385;;;;
2020/03/30 12:13:38;;;;;;;6;5.5;;;;;;;5.55;63.92383;941.4543;;;;
2020/03/30 12:16:03;;;;;;;6.8;6.1;;;;;;;4.97;65.70801;941.4871;;;;
2020/03/30 12:18:28;;;;;;;7;6.3;;;;;;;5.09;65.90527;941.4615;;;;
2020/03/30 12:20:53;;;;;;;6.1;5.6;;;;;;;5.11;64.85059;941.5106;;;;
2020/03/30 12:23:18;;;;;;;7;6.3;;;;;;;5.23;65.69238;941.4842;;;;
2020/03/30 12:25:44;;;;;;;7.1;6.4;;;;;;;5.33;65.33496;941.5175;;;;
2020/03/30 12:28:09;;;;;;;7;6.3;;;;;;;5.14;65.8457;941.5027;;;;
2020/03/30 12:30:35;;;;;;;6.5;5.9;;;;;;;5.58;65.48535;941.3935;;;;
2020/03/30 12:33:00;;;;;;;6.4;5.7;;;;;;;5.52;64.37109;941.5093;;;;
2020/03/30 12:35:26;;;;;;;6.4;5.8;;;;;;;5.61;65.07129;941.4508;;;;
2020/03/30 12:37:51;;;;;;;6.9;6.2;;;;;;;5.16;66.16602;941.5208;;;;
2020/03/30 12:40:16;;;;;;;6.9;6.2;;;;;;;5.13;67.0625;941.4313;;;;
2020/03/30 12:42:41;;;;;;;7.3;6.6;;;;;;;5.1;67.50879;941.4445;;;;
2020/03/30 12:45:06;;;;;;;8.3;7.5;;;;;;;4.85;68.27051;941.4072;;;;
2020/03/30 12:47:32;;;;;;;7.8;7.1;;;;;;;4.49;68.44922;941.4928;;;;
2020/03/30 12:49:57;;;;;;;8.3;7.5;;;;;;;4.06;69.2793;941.4608;;;;
2020/03/30 12:52:22;;;;;;;8.4;7.6;;;;;;;3.77;71.81543;941.4504;;;;
2020/03/30 12:54:47;;;;;;;8;7.2;;;;;;;3.88;71.79004;941.3528;;;;
2020/03/30 12:57:12;;;;;;;7.9;7.1;;;;;;;3.67;72.35059;941.4522;;;;
2020/03/30 12:59:39;;;;;;;7.9;7.2;;;;;;;3.76;72.63574;941.4667;;;;
2020/03/30 13:02:05;;;;;;;8;7.2;;;;;;;3.74;71.80078;941.4698;;;;
2020/03/30 13:04:30;;;;;;;8;7.2;;;;;;;3.9;72.3125;941.4395;;;;
2020/03/30 13:06:55;;;;;;;8.1;7.4;;;;;;;4.09;71.4668;941.4064;;;;
2020/03/30 13:09:20;;;;;;;7.7;7;;;;;;;4.07;72.34082;941.3552;;;;
2020/03/30 13:11:46;;;;;;;8.3;7.3;;;;;;;3.94;72.68945;941.3765;;;;
2020/03/30 13:14:11;;;;;;;10;8.8;;;;;;;3.89;71.83691;941.394;;;;
2020/03/30 13:16:36;;;;;;;8.7;7.8;;;;;;;4;72.61035;941.2812;;;;
2020/03/30 13:19:01;;;;;;;8.5;7.7;;;;;;;3.91;71.97461;941.3704;;;;
2020/03/30 13:21:27;;;;;;;7.7;6.9;;;;;;;4.1;72.06445;941.4058;;;;
2020/03/30 13:23:52;;;;;;;7.7;6.9;;;;;;;3.83;71.99609;941.4219;;;;
2020/03/30 13:26:17;;;;;;;7.8;7.1;;;;;;;3.88;72.58984;941.3703;;;;
2020/03/30 13:28:42;;;;;;;7.3;6.6;;;;;;;4.06;72.14648;941.3862;;;;
2020/03/30 13:31:07;;;;;;;8;7.2;;;;;;;4.07;72.46387;941.3038;;;;
2020/03/30 13:33:32;;;;;;;8.1;7.3;;;;;;;3.87;72.37305;941.3738;;;;
2020/03/30 13:35:57;;;;;;;8.4;7.6;;;;;;;3.63;73.21973;941.3237;;;;
2020/03/30 13:38:22;;;;;;;7.8;7.1;;;;;;;3.74;73.2041;941.3642;;;;
2020/03/30 13:40:47;;;;;;;9.4;8.4;;;;;;;3.61;73.91309;941.2985;;;;
2020/03/30 13:43:12;;;;;;;8.7;7.8;;;;;;;3.62;74.73633;941.3628;;;;
2020/03/30 13:45:37;;;;;;;8.7;7.9;;;;;;;3.66;74.21484;941.3935;;;;
2020/03/30 13:48:03;;;;;;;9.4;8.3;;;;;;;3.55;74.39746;941.3234;;;;
2020/03/30 13:50:28;;;;;;;9.8;8.2;;;;;;;3.53;73.74121;941.2888;;;;
2020/03/30 13:52:53;;;;;;;8.7;7.8;;;;;;;3.15;74.46191;941.2498;;;;
2020/03/30 13:55:18;;;;;;;8.9;8;;;;;;;3.04;75.67676;941.3008;;;;
2020/03/30 13:57:43;;;;;;;8.6;7.7;;;;;;;3.1;75.56445;941.2933;;;;
2020/03/30 14:00:08;;;;;;;9.4;8.4;;;;;;;2.82;76.94824;941.2739;;;;
2020/03/30 14:02:33;;;;;;;10.7;9.3;;;;;;;2.52;78.19629;941.2659;;;;
2020/03/30 14:04:59;;;;;;;11.6;10.4;;;;;;;2.31;79.23145;941.3416;;;;
2020/03/30 14:07:24;;;;;;;11.1;9.4;;;;;;;2.38;78.50586;941.1401;;;;
2020/03/30 14:09:49;;;;;;;10.4;9.3;;;;;;;2.18;79.23047;941.286;;;;
2020/03/30 14:12:14;;;;;;;10.3;9.2;;;;;;;2.01;79.56738;941.3594;;;;